Time;durP1;ratioP1;P1;durP2;ratioP2;P2;SDS_P1;SDS_P2;PMS_P1;PMS_P2;Temp;Humidity;BMP_temperature;BMP_pressure;BME280_temperature;BME280_humidity;BME280_pressure;Samples;Min_cycle;Max_cycle;Signal;HPM_P1;HPM_P2
2022/02/05 00:00:44;;;;;;;;;5.00;3.50;;;;;6.68;70.77;101525.91;5054367;28;48173;-76
2022/02/05 00:03:18;;;;;;;;;4.75;2.50;;;;;6.68;70.44;101529.34;5055041;28;46542;-75
2022/02/05 00:06:21;;;;;;;;;4.00;4.00;;;;;6.67;70.49;101530.25;5054070;28;46032;-76
2022/02/05 00:09:06;;;;;;;;;2.00;1.25;;;;;6.70;70.28;101532.72;5052165;28;45636;-74
2022/02/05 00:38:49;;;;;;;;;4.25;4.00;;;;;6.52;70.54;101535.22;5054825;28;45574;-75
2022/02/05 00:44:00;;;;;;;;;1.50;1.50;;;;;6.57;70.74;101552.38;5032461;28;45586;-77
2022/02/05 00:46:30;;;;;;;;;1.25;1.25;;;;;6.51;70.35;101539.59;5032677;28;46185;-78
2022/02/05 00:48:56;;;;;;;;;1.00;1.00;;;;;6.56;70.95;101542.84;5016082;28;45817;-74
2022/02/05 00:54:47;;;;;;;;;4.50;2.00;;;;;6.56;70.56;101545.47;5032505;28;46117;-73
2022/02/05 00:59:53;;;;;;;;;2.00;1.00;;;;;6.53;70.63;101535.16;5032459;28;45718;-72
2022/02/05 01:02:18;;;;;;;;;1.00;1.00;;;;;6.53;70.53;101537.75;5032697;28;45524;-72
2022/02/05 01:04:44;;;;;;;;;1.00;1.00;;;;;6.57;70.60;101538.50;5032262;28;46240;-75
2022/02/05 01:10:30;;;;;;;;;3.75;1.00;;;;;6.58;70.87;101553.22;5032334;28;45615;-75
2022/02/05 01:13:02;;;;;;;;;1.25;1.25;;;;;6.54;70.87;101547.25;5032165;28;45782;-75
2022/02/05 01:15:35;;;;;;;;;2.00;1.00;;;;;6.53;70.48;101552.56;5031973;28;46416;-74
2022/02/05 01:18:04;;;;;;;;;1.50;1.00;;;;;6.52;71.30;101562.13;5031710;28;46223;-72
2022/02/05 01:26:41;;;;;;;;;1.00;1.00;;;;;6.50;70.70;101558.72;5053892;28;45519;-76
2022/02/05 01:29:21;;;;;;;;;1.00;1.00;;;;;6.48;71.13;101570.94;5069629;28;47270;-74
2022/02/05 01:31:52;;;;;;;;;4.00;2.00;;;;;6.52;70.80;101577.72;5053844;28;45806;-73
2022/02/05 01:50:55;;;;;;;;;4.00;4.00;;;;;6.49;70.35;101583.03;5053730;28;45666;-73
2022/02/05 01:56:14;;;;;;;;;1.50;1.00;;;;;6.53;70.59;101594.19;5053924;28;45646;-72
2022/02/05 02:12:26;;;;;;;;;1.25;1.00;;;;;6.52;70.33;101614.19;5053647;28;45978;-75
2022/02/05 02:15:01;;;;;;;;;5.00;1.50;;;;;6.46;70.49;101603.16;5053693;28;45943;-75
2022/02/05 02:28:49;;;;;;;;;2.00;2.00;;;;;6.47;70.17;101610.06;5057418;28;45662;-73
2022/02/05 02:31:20;;;;;;;;;1.00;0.25;;;;;6.50;70.13;101620.34;5056856;28;46708;-74
2022/02/05 02:33:50;;;;;;;;;2.50;1.00;;;;;6.46;70.41;101604.00;5057274;28;46213;-75
2022/02/05 02:36:37;;;;;;;;;4.00;2.00;;;;;6.45;70.02;101598.84;5056777;28;45460;-77
2022/02/05 02:42:25;;;;;;;;;0.75;0.00;;;;;6.45;70.46;101614.47;5055848;28;45730;-73
2022/02/05 02:44:51;;;;;;;;;1.25;1.00;;;;;6.49;70.29;101623.84;5039124;28;47888;-75
2022/02/05 02:47:16;;;;;;;;;3.00;2.00;;;;;6.45;70.09;101617.06;5057035;28;45756;-75
2022/02/05 02:49:54;;;;;;;;;4.00;1.00;;;;;6.51;70.32;101633.31;5057174;28;45765;-74
2022/02/05 02:58:06;;;;;;;;;1.50;1.50;;;;;6.47;70.61;101620.47;4975239;28;45921;-73
2022/02/05 03:00:32;;;;;;;;;4.50;3.50;;;;;6.41;70.61;101616.34;4975166;28;45848;-75
2022/02/05 03:02:57;;;;;;;;;4.00;2.00;;;;;6.45;70.28;101637.88;4975034;28;47357;-78
2022/02/05 03:05:23;;;;;;;;;4.00;2.00;;;;;6.45;69.99;101638.72;4991282;28;46373;-78
2022/02/05 03:07:50;;;;;;;;;0.25;0.25;;;;;6.44;70.50;101633.56;4974956;28;45618;-75
2022/02/05 03:10:15;;;;;;;;;1.25;0.75;;;;;6.45;70.49;101636.13;4991754;28;45619;-76
2022/02/05 03:12:43;;;;;;;;;4.00;2.00;;;;;6.38;70.36;101618.19;4975015;28;46037;-74
2022/02/05 03:15:15;;;;;;;;;1.25;1.00;;;;;6.43;70.67;101635.31;4974895;28;46944;-75
2022/02/05 03:17:54;;;;;;;;;2.00;1.00;;;;;6.43;70.26;101645.75;4975142;28;45849;-77
2022/02/05 03:20:20;;;;;;;;;0.75;0.00;;;;;6.41;70.35;101652.78;4975385;28;45630;-76
2022/02/05 03:22:45;;;;;;;;;3.00;1.00;;;;;6.40;70.56;101653.66;4990998;28;46636;-77
2022/02/05 03:25:11;;;;;;;;;2.00;1.00;;;;;6.39;70.21;101658.94;4974636;28;45655;-76
2022/02/05 03:27:36;;;;;;;;;0.50;0.50;;;;;6.38;70.55;101658.06;4974887;28;45686;-77
2022/02/05 03:30:03;;;;;;;;;2.00;1.25;;;;;6.35;70.30;101665.16;4986269;28;45604;-74
2022/02/05 03:32:29;;;;;;;;;2.25;1.25;;;;;6.37;69.94;101661.56;5056043;28;46743;-76
2022/02/05 03:34:54;;;;;;;;;0.50;0.50;;;;;6.38;69.90;101672.84;5056309;28;46184;-77
2022/02/05 03:37:20;;;;;;;;;1.75;1.75;;;;;6.36;70.19;101657.31;5056015;28;45595;-76
2022/02/05 03:39:47;;;;;;;;;0.75;0.00;;;;;6.33;70.30;101647.84;5055941;28;45722;-77
2022/02/05 03:42:13;;;;;;;;;3.50;1.00;;;;;6.37;70.34;101668.56;5054884;28;46393;-75
2022/02/05 03:44:38;;;;;;;;;6.50;1.00;;;;;6.32;70.80;101666.94;5056274;28;46184;-75
2022/02/05 03:47:04;;;;;;;;;1.00;1.00;;;;;6.35;70.77;101676.41;5056199;28;45603;-74
2022/02/05 03:49:29;;;;;;;;;1.00;1.00;;;;;6.35;70.36;101668.59;5056391;28;45804;-74
2022/02/05 03:51:55;;;;;;;;;1.00;1.00;;;;;6.33;70.16;101670.41;5054420;28;46574;-75
2022/02/05 03:57:43;;;;;;;;;1.00;1.00;;;;;6.29;70.04;101663.63;5056249;28;45646;-74
2022/02/05 04:00:09;;;;;;;;;4.50;2.00;;;;;6.33;70.51;101673.84;5056284;28;45643;-75
2022/02/05 04:02:36;;;;;;;;;2.00;1.00;;;;;6.26;70.64;101669.78;5054935;28;45953;-76
2022/02/05 04:05:02;;;;;;;;;2.00;1.00;;;;;6.26;70.30;101671.56;5056482;28;46630;-76
2022/02/05 04:07:30;;;;;;;;;1.00;0.75;;;;;6.29;70.25;101679.25;5056212;28;45666;-74
2022/02/05 04:10:00;;;;;;;;;3.50;1.00;;;;;6.31;70.19;101685.25;5056291;28;45702;-74
2022/02/05 04:17:54;;;;;;;;;1.00;1.00;;;;;6.22;69.98;101660.38;5055609;28;45919;-72
2022/02/05 04:20:20;;;;;;;;;1.00;1.00;;;;;6.33;70.47;101681.66;5055811;28;45861;-73
2022/02/05 04:22:45;;;;;;;;;0.50;0.00;;;;;6.33;69.97;101684.28;5054454;28;45686;-73
2022/02/05 04:25:11;;;;;;;;;1.75;1.25;;;;;6.29;69.97;101663.63;5054391;28;46881;-74
2022/02/05 04:27:38;;;;;;;;;2.00;1.00;;;;;6.37;70.33;101678.97;5055432;28;45636;-74
2022/02/05 04:30:04;;;;;;;;;0.75;0.75;;;;;6.37;70.19;101690.19;5056112;28;45503;-77
2022/02/05 04:32:30;;;;;;;;;1.00;0.75;;;;;6.36;70.07;101680.72;5056636;28;45551;-76
2022/02/05 04:34:55;;;;;;;;;1.50;1.00;;;;;6.37;70.13;101673.78;5056211;28;46142;-76
2022/02/05 04:37:23;;;;;;;;;1.00;1.00;;;;;6.32;70.02;101671.31;5053693;28;45625;-76
2022/02/05 04:56:30;;;;;;;;;1.00;1.00;;;;;6.47;70.49;101702.00;5054808;28;45992;-75
2022/02/05 05:20:23;;;;;;;;;1.00;1.00;;;;;6.36;70.34;101695.47;4993124;28;45822;-75
2022/02/05 05:26:11;;;;;;;;;1.50;0.00;;;;;6.29;70.68;101703.50;4992257;28;46006;-77
2022/02/05 05:28:36;;;;;;;;;2.00;0.50;;;;;6.30;70.97;101704.38;4992423;28;45604;-75
2022/02/05 05:31:01;;;;;;;;;1.50;1.00;;;;;6.25;70.68;101709.72;4992031;28;45650;-78
2022/02/05 05:33:27;;;;;;;;;1.00;0.00;;;;;6.29;70.36;101708.72;4976081;28;45752;-76
2022/02/05 05:35:52;;;;;;;;;1.00;1.00;;;;;6.28;70.74;101703.56;4992767;28;46373;-78
2022/02/05 05:41:39;;;;;;;;;1.00;1.00;;;;;6.26;70.57;101698.41;4994415;28;45927;-77
2022/02/05 05:46:41;;;;;;;;;1.00;1.00;;;;;6.25;70.99;101707.13;5054989;28;45615;-76
2022/02/05 05:51:34;;;;;;;;;1.00;1.00;;;;;6.22;70.93;101701.16;5054916;28;45644;-73
2022/02/05 05:57:21;;;;;;;;;1.00;1.00;;;;;6.17;70.96;101697.88;5055419;28;45601;-77
2022/02/05 05:59:47;;;;;;;;;2.50;1.00;;;;;6.18;70.92;101710.00;5055606;28;46321;-76
2022/02/05 06:02:12;;;;;;;;;1.50;1.00;;;;;6.17;71.41;101708.28;5054651;28;45675;-76
2022/02/05 06:04:38;;;;;;;;;1.00;1.00;;;;;6.10;70.91;101696.41;5054915;28;45777;-73
2022/02/05 06:07:04;;;;;;;;;4.00;1.00;;;;;6.14;70.86;101705.81;5054958;28;46760;-77
2022/02/05 06:12:51;;;;;;;;;1.00;1.00;;;;;6.11;70.97;101730.16;5054640;28;45694;-76
2022/02/05 06:15:16;;;;;;;;;2.00;1.00;;;;;6.11;71.30;101737.97;5054286;28;46004;-77
2022/02/05 06:17:42;;;;;;;;;0.00;0.00;;;;;6.13;70.87;101735.31;5054687;28;46447;-75
2022/02/05 06:20:09;;;;;;;;;1.25;1.00;;;;;6.14;71.22;101731.81;5055141;28;45768;-75
2022/02/05 06:22:37;;;;;;;;;1.75;1.00;;;;;6.12;71.25;101725.81;5054154;28;46078;-75
2022/02/05 06:28:24;;;;;;;;;1.75;1.00;;;;;6.10;71.66;101740.66;5053744;28;46193;-74
2022/02/05 06:30:50;;;;;;;;;0.25;0.00;;;;;6.07;71.70;101741.59;5054006;28;45631;-74
2022/02/05 06:33:16;;;;;;;;;3.75;1.50;;;;;6.07;71.66;101743.34;5035463;28;45547;-76
2022/02/05 06:35:42;;;;;;;;;2.00;2.00;;;;;6.03;71.74;101740.00;5053648;28;45808;-75
2022/02/05 06:38:07;;;;;;;;;1.75;1.50;;;;;6.03;71.63;101741.75;5053470;28;46499;-74
2022/02/05 06:43:54;;;;;;;;;1.00;1.00;;;;;6.02;71.38;101742.63;5056528;28;45870;-76
2022/02/05 06:46:19;;;;;;;;;1.00;1.00;;;;;6.03;71.77;101736.53;5056635;28;45691;-77
2022/02/05 06:48:44;;;;;;;;;1.00;1.00;;;;;6.01;71.80;101747.00;5056489;28;46472;-75
2022/02/05 06:51:10;;;;;;;;;1.50;1.00;;;;;5.94;71.26;101742.88;5059805;28;46086;-75
2022/02/05 06:53:36;;;;;;;;;1.00;1.00;;;;;6.02;71.62;101758.25;5061031;28;45517;-77
2022/02/05 06:56:01;;;;;;;;;0.25;0.00;;;;;5.99;71.69;101759.22;5060676;28;45675;-77
2022/02/05 06:58:26;;;;;;;;;2.00;1.75;;;;;5.99;72.04;101771.38;5058802;28;45696;-77
2022/02/05 07:00:52;;;;;;;;;5.00;2.00;;;;;5.96;72.42;101781.84;5057864;28;46213;-77
2022/02/05 07:03:21;;;;;;;;;2.50;1.50;;;;;5.97;71.46;101788.75;5057014;28;45466;-76
2022/02/05 07:05:46;;;;;;;;;2.00;0.00;;;;;5.93;71.61;101787.19;5060099;28;45638;-77
2022/02/05 07:08:11;;;;;;;;;1.25;0.75;;;;;5.87;72.03;101776.06;5060101;28;45873;-77
2022/02/05 07:13:59;;;;;;;;;0.00;0.00;;;;;5.88;72.55;101793.34;5062040;28;45598;-75
2022/02/05 07:16:30;;;;;;;;;2.00;1.00;;;;;5.91;72.70;101805.41;5061836;28;45428;-75
2022/02/05 07:19:21;;;;;;;;;1.00;1.00;;;;;5.92;72.57;101798.47;5061587;28;46668;-74
2022/02/05 07:21:51;;;;;;;;;1.75;1.00;;;;;5.93;72.27;101797.56;5059954;28;46161;-72
2022/02/05 07:29:27;;;;;;;;;4.75;2.00;;;;;6.00;71.85;101802.50;5056561;28;46142;-74
2022/02/05 07:31:57;;;;;;;;;1.25;1.00;;;;;6.04;72.20;101792.88;5056279;28;46997;-73
2022/02/05 07:34:24;;;;;;;;;2.25;0.75;;;;;6.16;71.54;101806.31;5056384;28;45604;-74
2022/02/05 07:36:50;;;;;;;;;7.00;3.50;;;;;6.23;71.55;101813.00;5057602;28;45619;-73
2022/02/05 07:39:17;;;;;;;;;1.00;1.00;;;;;6.28;71.49;101813.69;5054842;28;46853;-75
2022/02/05 07:41:43;;;;;;;;;4.25;1.00;;;;;6.23;71.89;101794.78;5057201;28;46194;-74
2022/02/05 07:44:12;;;;;;;;;2.00;1.25;;;;;6.35;71.97;101811.75;5056225;28;45691;-74
2022/02/05 07:46:39;;;;;;;;;4.00;1.00;;;;;6.35;72.20;101816.94;5039068;28;45824;-74
2022/02/05 07:49:05;;;;;;;;;4.00;1.00;;;;;6.36;71.93;101821.25;5057509;28;45967;-74
2022/02/05 07:51:31;;;;;;;;;2.00;1.00;;;;;6.36;72.46;101831.66;5058212;28;47232;-73
2022/02/05 07:53:57;;;;;;;;;3.50;1.00;;;;;6.22;72.29;101800.91;5055906;28;45551;-73
2022/02/05 07:56:23;;;;;;;;;1.75;1.00;;;;;6.35;72.45;101827.34;5071706;28;45537;-73
2022/02/05 07:58:49;;;;;;;;;2.00;2.00;;;;;6.34;71.87;101830.84;5055409;28;45529;-74
2022/02/05 08:01:14;;;;;;;;;2.00;1.00;;;;;6.30;72.06;101824.06;5055335;28;46889;-73
2022/02/05 08:03:40;;;;;;;;;2.00;1.00;;;;;6.22;71.87;101806.09;5055377;28;45746;-73
2022/02/05 08:06:13;;;;;;;;;3.00;0.75;;;;;6.34;72.59;101830.84;5055998;28;45584;-73
2022/02/05 08:08:39;;;;;;;;;1.00;1.00;;;;;6.35;72.33;101834.31;5055686;28;46327;-75
2022/02/05 08:14:28;;;;;;;;;2.00;1.00;;;;;6.28;72.57;101818.06;5055656;28;46006;-74
2022/02/05 08:19:22;;;;;;;;;4.00;1.00;;;;;6.38;72.33;101827.25;5055533;28;45696;-75
2022/02/05 08:21:49;;;;;;;;;4.00;2.00;;;;;6.37;72.45;101822.09;5055017;28;46117;-73
2022/02/05 08:24:15;;;;;;;;;2.00;0.75;;;;;6.41;72.14;101827.16;5054263;28;45660;-74
2022/02/05 08:26:41;;;;;;;;;3.50;1.00;;;;;6.41;72.72;101810.69;5054882;28;45657;-73
2022/02/05 08:29:06;;;;;;;;;1.00;1.00;;;;;6.33;72.41;101806.59;5054931;28;45508;-77
2022/02/05 08:31:32;;;;;;;;;1.75;1.00;;;;;6.41;72.53;101805.47;5054398;28;46901;-76
2022/02/05 08:33:57;;;;;;;;;4.00;1.00;;;;;6.40;72.61;101802.03;5054993;28;45447;-76
2022/02/05 08:36:25;;;;;;;;;4.75;2.00;;;;;6.46;72.44;101794.00;5054617;28;45512;-75
2022/02/05 08:38:53;;;;;;;;;2.50;1.25;;;;;6.53;72.08;101811.09;5054584;28;45864;-76
2022/02/05 08:44:40;;;;;;;;;2.00;1.00;;;;;6.53;72.46;101798.06;5053546;28;45773;-76
2022/02/05 08:47:06;;;;;;;;;2.00;2.00;;;;;6.61;72.49;101809.09;5054961;28;45570;-76
2022/02/05 08:49:32;;;;;;;;;1.00;0.75;;;;;6.62;72.47;101812.53;5054660;28;46322;-75
2022/02/05 08:52:00;;;;;;;;;2.50;1.00;;;;;6.66;72.33;101824.53;5054566;28;46192;-75
2022/02/05 08:54:27;;;;;;;;;1.75;1.50;;;;;6.61;72.58;101809.09;5036608;28;45859;-74
2022/02/05 08:56:54;;;;;;;;;2.00;1.00;;;;;6.62;72.26;101815.13;5054698;28;45583;-75
2022/02/05 08:59:21;;;;;;;;;1.00;0.50;;;;;6.59;72.54;101799.59;5054103;28;46919;-75
2022/02/05 09:01:56;;;;;;;;;1.75;1.75;;;;;6.66;72.19;101820.19;5054132;28;47447;-76
2022/02/05 09:04:35;;;;;;;;;1.00;1.00;;;;;6.71;72.16;101827.81;5054690;28;45834;-75
2022/02/05 09:07:01;;;;;;;;;2.75;2.25;;;;;6.73;72.25;101826.88;5054347;28;45612;-77
2022/02/05 09:14:35;;;;;;;;;4.00;1.00;;;;;6.80;72.51;101834.47;5054162;28;45644;-76
2022/02/05 09:17:01;;;;;;;;;2.50;2.25;;;;;6.82;72.57;101827.44;5054202;28;45775;-76
2022/02/05 09:19:30;;;;;;;;;2.50;2.00;;;;;6.68;72.41;101805.38;5054426;28;46255;-75
2022/02/05 09:21:56;;;;;;;;;5.00;3.75;;;;;6.80;72.60;101824.06;5053981;28;46608;-76
2022/02/05 09:24:21;;;;;;;;;2.00;2.00;;;;;6.89;72.33;101837.59;5054364;28;45719;-76
2022/02/05 09:26:55;;;;;;;;;2.00;2.00;;;;;6.92;72.57;101842.69;5054344;28;45799;-77
2022/02/05 09:29:22;;;;;;;;;4.25;1.75;;;;;6.97;72.48;101845.13;5052655;28;46754;-76
2022/02/05 09:31:49;;;;;;;;;3.00;2.00;;;;;7.01;72.50;101841.53;5053507;28;45794;-75
2022/02/05 09:34:15;;;;;;;;;5.25;2.00;;;;;7.03;71.96;101839.69;5052873;28;46077;-76
2022/02/05 09:36:41;;;;;;;;;2.00;1.50;;;;;7.00;72.16;101821.56;5052845;28;45615;-75
2022/02/05 09:39:07;;;;;;;;;5.25;2.50;;;;;7.09;72.16;101826.44;5052388;28;46444;-76
2022/02/05 09:44:54;;;;;;;;;3.25;2.00;;;;;7.18;72.30;101830.47;5053527;28;45667;-77
2022/02/05 09:47:23;;;;;;;;;4.50;4.00;;;;;7.23;72.23;101834.63;5052268;28;45589;-76
2022/02/05 09:49:51;;;;;;;;;2.00;1.75;;;;;7.31;72.27;101831.69;5052391;28;47166;-75
2022/02/05 09:52:25;;;;;;;;;5.00;3.00;;;;;7.27;72.08;101828.38;5052585;28;46199;-74
2022/02/05 09:54:52;;;;;;;;;2.00;2.00;;;;;7.38;72.17;101836.63;5052139;28;45704;-76
2022/02/05 09:57:21;;;;;;;;;2.00;1.75;;;;;7.33;71.78;101822.94;5053730;28;45811;-75
2022/02/05 09:59:55;;;;;;;;;3.00;2.00;;;;;7.41;72.06;101825.22;5053786;28;46473;-76
2022/02/05 10:02:34;;;;;;;;;3.50;2.00;;;;;7.50;72.40;101846.56;5053777;28;45690;-77
2022/02/05 10:05:05;;;;;;;;;4.75;3.00;;;;;7.52;71.96;101862.16;5053545;28;45900;-77
2022/02/05 10:07:31;;;;;;;;;2.75;2.00;;;;;7.49;72.07;101842.28;5053768;28;45681;-77
2022/02/05 10:09:59;;;;;;;;;2.50;1.75;;;;;7.62;72.01;101857.44;5053482;28;47298;-76
2022/02/05 10:12:24;;;;;;;;;2.00;2.00;;;;;7.64;72.15;101859.09;5053562;28;46064;-77
2022/02/05 10:14:52;;;;;;;;;4.50;2.50;;;;;7.66;72.01;101861.66;5053627;28;46038;-75
2022/02/05 10:17:17;;;;;;;;;5.50;3.00;;;;;7.70;72.22;101847.56;5053910;28;45653;-75
2022/02/05 10:19:51;;;;;;;;;3.75;3.25;;;;;7.72;71.87;101849.19;5051967;28;47462;-76
2022/02/05 10:22:19;;;;;;;;;2.75;2.00;;;;;7.76;71.82;101856.00;5053370;28;46004;-74
2022/02/05 10:24:53;;;;;;;;;2.50;2.00;;;;;7.82;71.97;101858.38;5052274;28;45774;-75
2022/02/05 10:27:46;;;;;;;;;5.75;2.75;;;;;7.86;71.55;101853.88;5053132;28;45702;-75
2022/02/05 10:30:25;;;;;;;;;3.00;2.25;;;;;7.92;71.63;101867.53;5051262;28;47140;-74
2022/02/05 10:33:25;;;;;;;;;4.50;3.00;;;;;7.96;71.57;101868.25;5053318;28;46075;-75
2022/02/05 10:36:17;;;;;;;;;5.00;2.50;;;;;8.02;71.59;101870.63;5052870;28;45679;-74
2022/02/05 10:44:17;;;;;;;;;5.00;2.00;;;;;8.10;71.55;101865.09;5052787;28;46032;-76
2022/02/05 10:46:43;;;;;;;;;3.50;3.00;;;;;8.20;71.25;101877.72;5053017;28;45904;-75
2022/02/05 10:49:12;;;;;;;;;2.00;2.00;;;;;8.24;71.10;101881.91;5056472;28;45748;-75
2022/02/05 10:51:45;;;;;;;;;4.25;2.25;;;;;8.29;71.22;101886.94;5056187;28;46448;-75
2022/02/05 10:57:14;;;;;;;;;4.00;1.00;;;;;8.37;70.96;101888.31;5033940;28;45792;-75
2022/02/05 11:05:11;;;;;;;;;2.00;1.00;;;;;8.40;70.65;101869.94;5034266;28;45741;-75
2022/02/05 11:05:50;;;;;;;;;1.75;1.00;;;;;8.52;70.68;101892.09;5034094;28;45868;-76
2022/02/05 11:08:18;;;;;;;;;2.25;1.50;;;;;8.58;71.15;101890.97;5033573;28;45574;-76
2022/02/05 11:19:36;;;;;;;;;1.00;1.00;;;;;8.81;70.53;101888.22;5033864;28;45900;-75
2022/02/05 11:22:03;;;;;;;;;3.50;2.25;;;;;8.87;70.31;101889.72;5034152;28;45956;-75
2022/02/05 11:24:32;;;;;;;;;5.00;1.00;;;;;8.85;69.84;101879.34;5033778;28;47786;-74
2022/02/05 11:30:28;;;;;;;;;1.25;1.00;;;;;9.07;69.61;101880.06;5053910;28;45644;-74
2022/02/05 11:32:55;;;;;;;;;3.00;1.00;;;;;9.08;69.49;101879.16;5053759;28;45867;-74
2022/02/05 11:35:33;;;;;;;;;1.50;1.00;;;;;9.17;69.24;101875.31;5055930;28;45658;-74
2022/02/05 11:38:01;;;;;;;;;1.25;0.00;;;;;9.18;68.96;101859.53;5055537;28;45997;-76
2022/02/05 11:47:37;;;;;;;;;5.00;2.50;;;;;9.42;68.54;101860.19;5055104;28;46109;-75
2022/02/05 11:50:02;;;;;;;;;0.50;0.25;;;;;9.48;68.42;101864.28;5055579;28;45644;-75
2022/02/05 11:52:36;;;;;;;;;1.00;1.00;;;;;9.50;68.23;101862.47;5055265;28;45748;-75
2022/02/05 11:55:02;;;;;;;;;1.00;1.00;;;;;9.53;67.92;101875.38;5055757;28;45752;-75
2022/02/05 12:00:57;;;;;;;;;2.00;1.00;;;;;9.54;67.17;101838.69;5054587;28;45633;-75
2022/02/05 12:03:35;;;;;;;;;1.25;1.00;;;;;9.60;67.33;101850.66;5055260;28;45539;-77
2022/02/05 12:06:10;;;;;;;;;0.50;0.50;;;;;9.65;66.96;101843.44;5055608;28;45753;-77
2022/02/05 12:08:40;;;;;;;;;2.75;1.00;;;;;9.66;66.77;101843.34;5055102;28;45467;-76
2022/02/05 12:11:34;;;;;;;;;2.50;1.00;;;;;9.69;66.60;101839.75;5055180;28;46905;-76
2022/02/05 12:14:18;;;;;;;;;1.00;0.25;;;;;9.65;66.03;101830.34;5055028;28;45526;-82
2022/02/05 12:17:04;;;;;;;;;2.00;1.00;;;;;9.72;66.15;101830.91;5055482;28;45470;-75
2022/02/05 12:19:29;;;;;;;;;1.00;1.00;;;;;9.74;66.30;101827.28;5055193;28;45674;-77
2022/02/05 12:21:59;;;;;;;;;2.00;0.00;;;;;9.76;65.79;101837.69;5055093;28;48304;-76
2022/02/05 12:24:41;;;;;;;;;0.00;0.00;;;;;9.65;65.70;101810.25;5055139;28;45686;-77
2022/02/05 12:27:29;;;;;;;;;1.75;1.25;;;;;9.77;65.43;101829.72;5054915;28;46042;-78
2022/02/05 12:29:54;;;;;;;;;1.00;1.00;;;;;9.79;64.97;101829.66;5054886;28;47462;-81
2022/02/05 12:32:20;;;;;;;;;0.00;0.00;;;;;9.77;65.72;101826.31;5037018;28;46487;-74
2022/02/05 12:34:46;;;;;;;;;0.00;0.00;;;;;9.83;64.82;101818.97;5054591;28;45573;-76
2022/02/05 12:37:12;;;;;;;;;0.75;0.00;;;;;9.84;65.39;101822.44;5054578;28;45505;-75
2022/02/05 12:39:38;;;;;;;;;0.75;0.00;;;;;9.81;64.00;101818.22;5054447;28;46437;-78
2022/02/05 12:42:07;;;;;;;;;1.00;0.00;;;;;9.84;63.22;101810.22;5054708;28;45976;-76
2022/02/05 12:44:36;;;;;;;;;0.25;0.00;;;;;9.85;63.62;101806.69;5054943;28;45638;-75
2022/02/05 12:47:09;;;;;;;;;1.00;0.00;;;;;9.87;63.57;101802.22;5037429;28;45954;-76
2022/02/05 12:49:52;;;;;;;;;2.00;0.50;;;;;9.89;63.57;101815.22;5034577;28;46870;-74
2022/02/05 12:52:26;;;;;;;;;0.25;0.00;;;;;9.83;63.07;101792.81;5034431;28;47550;-75
2022/02/05 12:54:57;;;;;;;;;1.25;0.00;;;;;9.95;62.29;101802.69;5034502;28;45599;-77
2022/02/05 12:57:23;;;;;;;;;0.00;0.00;;;;;10.00;62.51;101816.38;5033233;28;45751;-76
2022/02/05 12:59:48;;;;;;;;;1.50;1.00;;;;;10.04;62.61;101807.44;5034168;28;47559;-74
2022/02/05 13:02:16;;;;;;;;;1.00;0.00;;;;;10.12;62.63;101820.19;5034444;28;46343;-75
2022/02/05 13:04:45;;;;;;;;;1.00;0.50;;;;;10.14;62.35;101813.09;5035018;28;45573;-75
2022/02/05 13:07:21;;;;;;;;;0.00;0.00;;;;;10.24;62.71;101821.38;5034633;28;45628;-74
2022/02/05 13:10:10;;;;;;;;;1.75;0.25;;;;;10.28;61.30;101812.44;5034286;28;46552;-76
2022/02/05 13:12:42;;;;;;;;;0.00;0.00;;;;;10.31;61.81;101812.28;5034346;28;46965;-74
2022/02/05 13:15:24;;;;;;;;;0.50;0.00;;;;;10.28;60.61;101799.34;5034835;28;45609;-74
2022/02/05 13:26:10;;;;;;;;;2.00;1.00;;;;;10.38;59.62;101808.41;5034357;28;45728;-74
2022/02/05 13:28:49;;;;;;;;;1.25;1.00;;;;;10.36;59.36;101805.91;5034699;28;45662;-75
2022/02/05 13:34:11;;;;;;;;;1.75;0.00;;;;;10.47;58.37;101806.16;5034346;28;46138;-75
2022/02/05 13:36:44;;;;;;;;;1.00;0.00;;;;;10.46;56.99;101799.25;5034268;28;45728;-75
2022/02/05 13:45:42;;;;;;;;;0.25;0.00;;;;;10.49;57.83;101795.63;5033730;28;45498;-75
2022/02/05 13:48:07;;;;;;;;;1.00;0.00;;;;;10.45;58.01;101784.47;5033781;28;45704;-75
2022/02/05 13:50:33;;;;;;;;;0.75;0.75;;;;;10.49;57.24;101780.75;5034253;28;45480;-74
2022/02/05 13:53:02;;;;;;;;;0.00;0.00;;;;;10.47;58.00;101771.28;5033796;28;46415;-75
2022/02/05 13:55:36;;;;;;;;;0.50;0.00;;;;;10.50;57.40;101771.97;5033741;28;47139;-76
2022/02/05 14:01:35;;;;;;;;;1.00;0.00;;;;;10.59;57.98;101773.25;5034001;28;45571;-75
2022/02/05 14:04:23;;;;;;;;;1.25;1.00;;;;;10.60;57.21;101768.84;5034089;28;46634;-75
2022/02/05 14:06:59;;;;;;;;;1.25;0.50;;;;;10.65;57.09;101779.94;5033688;28;47299;-74
2022/02/05 14:09:29;;;;;;;;;1.75;1.00;;;;;10.67;58.09;101778.94;5034009;28;45639;-76
2022/02/05 14:11:59;;;;;;;;;0.00;0.00;;;;;10.69;56.38;101766.59;5033666;28;45530;-75
2022/02/05 14:14:32;;;;;;;;;1.00;0.00;;;;;10.71;56.84;101772.59;5033991;28;45634;-75
2022/02/05 14:16:58;;;;;;;;;1.50;0.00;;;;;10.72;56.87;101758.56;5033701;28;46183;-74
2022/02/05 14:19:26;;;;;;;;;0.00;0.00;;;;;10.78;56.01;101770.50;5034010;28;45629;-76
2022/02/05 14:21:53;;;;;;;;;0.75;0.00;;;;;10.80;56.19;101785.22;5033761;28;45444;-75
2022/02/05 14:24:25;;;;;;;;;0.50;0.00;;;;;10.77;56.14;101767.03;5019259;28;48175;-76
2022/02/05 14:42:44;;;;;;;;;1.50;0.00;;;;;10.87;54.73;101776.09;4936612;28;45580;-75
2022/02/05 14:45:09;;;;;;;;;0.00;0.00;;;;;10.87;53.50;101775.25;4938173;28;45783;-75
2022/02/05 14:47:35;;;;;;;;;1.00;0.00;;;;;10.86;54.14;101787.50;4955985;28;46540;-74
2022/02/05 14:50:02;;;;;;;;;0.75;0.75;;;;;10.86;54.31;101787.50;4955706;28;46279;-76
2022/02/05 14:52:27;;;;;;;;;0.00;0.00;;;;;10.91;53.41;101777.63;4955873;28;45741;-76
2022/02/05 14:54:53;;;;;;;;;2.00;1.00;;;;;10.91;53.48;101775.00;4956162;28;45784;-76
2022/02/05 14:57:19;;;;;;;;;2.00;0.00;;;;;10.90;53.77;101775.91;4955350;28;46868;-75
2022/02/05 14:59:44;;;;;;;;;2.00;1.00;;;;;10.95;54.15;101775.69;4955932;28;46144;-75
2022/02/05 15:02:11;;;;;;;;;3.00;2.00;;;;;11.00;54.20;101781.53;4955530;28;46065;-76
2022/02/05 15:04:38;;;;;;;;;1.25;0.00;;;;;11.02;53.54;101777.03;4956028;28;45787;-75
2022/02/05 15:07:05;;;;;;;;;0.50;0.25;;;;;11.03;53.52;101785.75;4980030;28;45792;-76
2022/02/05 15:09:30;;;;;;;;;0.75;0.75;;;;;11.07;53.20;101788.13;4994673;28;46290;-74
2022/02/05 15:11:55;;;;;;;;;1.00;0.00;;;;;11.06;52.08;101789.09;4994918;28;45590;-75
2022/02/05 15:17:44;;;;;;;;;0.00;0.00;;;;;11.03;52.79;101770.88;5035122;28;46062;-75
2022/02/05 15:20:11;;;;;;;;;1.00;1.00;;;;;11.06;52.91;101759.38;5056363;28;46277;-74
2022/02/05 15:22:37;;;;;;;;;1.00;1.00;;;;;11.05;52.70;101768.19;5056684;28;45874;-75
2022/02/05 15:25:03;;;;;;;;;0.25;0.00;;;;;11.05;52.31;101771.66;5056805;28;45946;-75
2022/02/05 15:27:28;;;;;;;;;1.00;1.00;;;;;11.05;52.83;101782.13;5055997;28;47376;-75
2022/02/05 15:29:53;;;;;;;;;0.00;0.00;;;;;11.06;52.87;101781.22;5056623;28;45625;-74
2022/02/05 15:32:19;;;;;;;;;0.00;0.00;;;;;11.02;53.31;101784.06;5056144;28;45554;-75
2022/02/05 15:34:45;;;;;;;;;0.50;0.50;;;;;11.04;53.36;101783.06;5056318;28;45786;-74
2022/02/05 15:37:17;;;;;;;;;0.00;0.00;;;;;11.01;53.33;101779.78;5056252;28;45588;-75
2022/02/05 15:39:53;;;;;;;;;0.00;0.00;;;;;11.04;53.26;101779.59;5056517;28;45996;-75
2022/02/05 15:45:03;;;;;;;;;1.00;1.00;;;;;11.02;53.42;101784.06;5056134;28;45622;-73
2022/02/05 15:47:29;;;;;;;;;1.00;1.00;;;;;10.97;53.69;101776.44;5055837;28;46559;-78
2022/02/05 15:49:55;;;;;;;;;1.00;0.00;;;;;11.02;53.66;101773.56;5037932;28;47151;-77
2022/02/05 15:52:21;;;;;;;;;1.50;0.00;;;;;11.03;53.60;101768.25;5056357;28;45681;-79
2022/02/05 15:54:48;;;;;;;;;0.50;0.50;;;;;10.97;53.68;101767.72;5056332;28;45541;-78
2022/02/05 16:03:04;;;;;;;;;1.25;0.75;;;;;11.19;54.19;101770.88;5055650;28;45581;-76
2022/02/05 16:05:29;;;;;;;;;3.00;1.00;;;;;11.21;54.17;101772.50;5055386;28;45707;-76
2022/02/05 16:07:55;;;;;;;;;1.50;0.00;;;;;11.23;54.21;101777.66;5055025;28;45645;-75
2022/02/05 16:10:22;;;;;;;;;2.25;1.00;;;;;11.23;54.31;101777.66;5055096;28;46282;-74
2022/02/05 16:12:48;;;;;;;;;1.00;0.75;;;;;11.18;54.48;101777.06;5054956;28;45618;-74
2022/02/05 16:15:16;;;;;;;;;2.50;0.75;;;;;11.18;54.42;101785.78;5054980;28;45526;-74
2022/02/05 16:17:42;;;;;;;;;4.75;1.00;;;;;11.19;54.37;101781.38;5055047;28;45758;-74
2022/02/05 16:20:08;;;;;;;;;1.00;1.00;;;;;11.14;54.67;101783.41;5055337;28;46055;-76